EDDNLIRQ

Guest
Details From EDDN - Nurnberg
To LIRQ - Firenze
Flight Number -
Tags Generated
Created
Modified
Stats Distance 342 nm / 634 km
Max Altitude 0 ft / 0 m
Waypoints 5
Social Downloads 1
Likes 0
Share VATSIM

Download

Looking for another format? Having issues loading an existing format? Contact us
Advertisement - Login to hide

Notes

Generated

Route

EDDN DISUN OZE27 PRT LIRQ

ID Type Via Altitude Latitude Longitude Leg Dist Tot Dist Heading (true) Name
O EDDN APT - 0 ft / 0 m 49.50055˚ 11.05918˚ - 0 nm - -
DISUN FIX - 0 ft / 0 m 47.86278˚ 11.10500˚ 98 nm 98 nm 179° / 179° -
OZE27 FIX - 0 ft / 0 m 45.98874˚ 11.14951˚ 112 nm 210 nm 179° / 179° -
PRT VOR - 0 ft / 0 m 43.80994˚ 11.20048˚ 130 nm 341 nm 179° / 179° PERETOLA VOR-DME
O LIRQ APT - 0 ft / 0 m 43.80507˚ 11.19741˚ 0 nm 342 nm 204° / 204° -

Altitude Profile

Advertisement - Login to hide

Weather


0- 5 10 15 20 25 30 35+ Temperature / ° C

Clouds and Precipitation
Forecast for 2018-05-22 12:00 UTC. Updated 2 hours ago

Ground ~20,000 ft ~40,000 ft Winds

EDDN

Details ICAO EDDN (NUE)
Name Nurnberg
Region Germany - Civil
Timezone Europe/Berlin (UTC+2.0)
Stats Elevation 1,045 ft / 319 m (AMSL)
Location 49.498744° 11.077580°
Runways 1
Magnetic Variation 3.074° E

METAR

EDDN 221020Z 12006KT 070V210 CAVOK 24/08 Q1013 NOSIG

Decode

TAF

TAF EDDN 220500Z 2206/2306 VRB03KT CAVOK BECMG 2206/2208 07006KT BECMG 2218/2220 VRB03KT

Decode

Departure Runways

ID Width Length Bearing (true) Bearing (mag) Surface Threshold Offset Overrun Length
10 148 ft / 45 m 8,819 ft / 2,688 m 98.60° 95.53° Asphalt 0 ft / 0 m 0 ft / 0 m
28 148 ft / 45 m 8,819 ft / 2,688 m 278.63° 275.56° Asphalt 0 ft / 0 m 0 ft / 0 m

LIRQ

Details ICAO LIRQ (FLR)
Name Firenze
Region Italy
Timezone Europe/Rome (UTC+2.0)
Stats Elevation 142 ft / 43 m (AMSL)
Location 43.809984° 11.205118°
Runways 1
Magnetic Variation 2.923° E

METAR

LIRQ 221020Z 24004KT 200V270 9999 -RA SCT020 BKN050 18/16 Q1014 RERA

Decode

TAF

TAF LIRQ 220500Z 2206/2306 VRB05KT 9999 SCT030 TEMPO 2211/2217 4000 TSRA

Decode

Destination Runways

ID Width Length Bearing (true) Bearing (mag) Surface Threshold Offset Overrun Length
05 98 ft / 30 m 5,420 ft / 1,652 m 48.52° 45.60° Asphalt 492 ft / 150 m 0 ft / 0 m
23 98 ft / 30 m 5,420 ft / 1,652 m 228.53° 225.61° Asphalt 2,287 ft / 697 m 0 ft / 0 m

Approach Navaids

Runway Type Ident Frequency Range Bearing (true) Bearing (mag) Slope Elevation
05 Localiser IFZ 110.30 MHz 18 nm / 33 km 48.10° 45.18° - 131 ft / 40 m (AMSL)
05 Glidescope IFZ 110.30 MHz 10 nm / 19 km 47.00° 44.08° 3.00° 144 ft / 44 m (AMSL)
05 DME IFZ 110.30 MHz 18 nm / 33 km - - - 144 ft / 44 m (AMSL)

Popular Alternatives